createdAt,value
2018-10-03T00:00:02.394Z,2.90
2018-10-03T00:02:38.160Z,2.43
2018-10-03T00:05:07.374Z,2.40
2018-10-03T00:07:40.163Z,2.50
2018-10-03T00:10:08.838Z,2.80
2018-10-03T00:12:38.057Z,2.23
2018-10-03T00:15:07.207Z,2.50
2018-10-03T00:17:37.441Z,2.20
2018-10-03T00:20:06.629Z,2.20
2018-10-03T00:22:38.202Z,2.20
2018-10-03T00:25:07.365Z,2.10
2018-10-03T00:27:46.093Z,2.40
2018-10-03T00:30:15.078Z,2.63
2018-10-03T00:32:44.074Z,2.30
2018-10-03T00:35:13.153Z,2.30
2018-10-03T00:37:42.459Z,2.33
2018-10-03T00:40:11.506Z,2.50
2018-10-03T00:42:41.004Z,2.27
2018-10-03T00:45:10.002Z,2.30
2018-10-03T00:47:41.482Z,2.47
2018-10-03T00:50:10.538Z,2.40
2018-10-03T00:52:39.690Z,3.10
2018-10-03T00:55:09.152Z,2.50
2018-10-03T00:57:38.256Z,2.27
2018-10-03T01:00:07.609Z,2.40
2018-10-03T01:02:36.770Z,2.67
2018-10-03T01:05:06.159Z,2.50
2018-10-03T01:07:40.120Z,3.00
2018-10-03T01:10:09.152Z,2.10
2018-10-03T01:12:38.163Z,2.43
2018-10-03T01:15:07.394Z,2.40
2018-10-03T01:17:36.862Z,2.47
2018-10-03T01:20:06.879Z,2.40
2018-10-03T01:22:36.630Z,2.23
2018-10-03T01:25:06.004Z,2.40
2018-10-03T01:27:40.623Z,2.50
2018-10-03T01:30:09.719Z,2.57
2018-10-03T01:32:38.979Z,2.80
2018-10-03T01:35:08.124Z,2.50
2018-10-03T01:37:37.236Z,2.30
2018-10-03T01:40:06.360Z,2.50
2018-10-03T01:42:37.933Z,2.90
2018-10-03T01:45:07.042Z,2.83
2018-10-03T01:47:40.370Z,2.10
2018-10-03T01:50:09.402Z,2.33
2018-10-03T01:52:38.473Z,2.40
2018-10-03T01:55:07.585Z,2.73
2018-10-03T01:57:36.800Z,2.30
2018-10-03T02:00:05.972Z,2.60
2018-10-03T02:02:42.516Z,2.27
2018-10-03T02:05:11.549Z,2.17
2018-10-03T02:07:41.982Z,2.60
2018-10-03T02:10:11.061Z,2.57
2018-10-03T02:12:40.394Z,2.20
2018-10-03T02:15:09.671Z,2.20
2018-10-03T02:17:38.729Z,2.30
2018-10-03T02:20:08.669Z,2.30
2018-10-03T02:22:38.508Z,2.10
2018-10-03T02:25:07.777Z,2.40
2018-10-03T02:27:37.444Z,2.30
2018-10-03T02:30:07.304Z,2.20
2018-10-03T02:32:36.833Z,2.20
2018-10-03T02:35:06.003Z,2.17
2018-10-03T02:37:35.608Z,2.23
2018-10-03T02:40:04.816Z,2.30
2018-10-03T02:42:37.944Z,2.80
2018-10-03T02:45:07.106Z,2.23
2018-10-03T02:47:40.357Z,2.20
2018-10-03T02:50:09.504Z,2.40
2018-10-03T02:52:39.323Z,2.57
2018-10-03T02:55:07.903Z,2.33
2018-10-03T02:57:37.309Z,2.27
2018-10-03T03:00:06.439Z,2.30
2018-10-03T03:02:45.273Z,2.30
2018-10-03T03:05:14.315Z,2.47
2018-10-03T03:07:44.064Z,2.30
2018-10-03T03:10:13.128Z,2.07
2018-10-03T03:12:42.082Z,2.30
2018-10-03T03:15:11.154Z,2.73
2018-10-03T03:17:40.319Z,2.40
2018-10-03T03:20:09.513Z,2.33
2018-10-03T03:22:39.290Z,2.60
2018-10-03T03:25:08.368Z,1.97
2018-10-03T03:27:40.870Z,2.40
2018-10-03T03:30:09.884Z,2.77
2018-10-03T03:32:39.081Z,2.83
2018-10-03T03:35:08.274Z,2.10
2018-10-03T03:37:37.403Z,2.33
2018-10-03T03:40:06.446Z,2.37
2018-10-03T03:42:37.757Z,2.93
2018-10-03T03:45:06.790Z,2.40
2018-10-03T03:47:40.163Z,2.50
2018-10-03T03:50:09.214Z,2.30
2018-10-03T03:52:38.550Z,2.60
2018-10-03T03:55:07.692Z,2.20
2018-10-03T03:57:37.214Z,2.43
2018-10-03T04:00:06.356Z,2.57
2018-10-03T04:02:35.444Z,2.10
2018-10-03T04:05:04.461Z,2.37
2018-10-03T04:07:40.580Z,2.20
2018-10-03T04:10:09.608Z,2.73
2018-10-03T04:12:38.738Z,2.43
2018-10-03T04:15:07.857Z,2.23
2018-10-03T04:17:37.734Z,2.57
2018-10-03T04:20:06.998Z,2.50
2018-10-03T04:22:38.208Z,2.23
2018-10-03T04:25:07.284Z,2.37
2018-10-03T04:27:41.027Z,2.30
2018-10-03T04:30:10.021Z,2.30
2018-10-03T04:32:39.315Z,2.53
2018-10-03T04:35:08.345Z,2.53
2018-10-03T04:37:37.568Z,2.40
2018-10-03T04:40:06.649Z,2.23
2018-10-03T04:42:44.035Z,2.13
2018-10-03T04:45:14.115Z,2.20
2018-10-03T04:47:46.813Z,2.77
2018-10-03T04:50:17.515Z,2.17
2018-10-03T04:52:48.070Z,2.33
2018-10-03T04:55:19.347Z,2.50
2018-10-03T04:57:48.593Z,3.03
2018-10-03T05:00:21.853Z,2.37
2018-10-03T05:02:59.606Z,2.40
2018-10-03T05:05:30.359Z,2.43
2018-10-03T05:08:07.264Z,2.47
2018-10-03T05:10:36.832Z,2.23
2018-10-03T05:13:10.473Z,2.43
2018-10-03T05:15:42.001Z,2.23
2018-10-03T05:18:12.189Z,2.43
2018-10-03T05:20:43.311Z,2.67
2018-10-03T05:23:13.515Z,2.30
2018-10-03T05:25:42.574Z,2.70
2018-10-03T05:28:11.985Z,2.53
2018-10-03T05:30:41.079Z,2.80
2018-10-03T05:33:11.359Z,2.77
2018-10-03T05:35:41.167Z,2.50
2018-10-03T05:38:10.632Z,2.20
2018-10-03T05:40:40.329Z,2.10
2018-10-03T05:43:09.438Z,1.70
2018-10-03T05:45:38.471Z,2.20
2018-10-03T05:48:08.117Z,2.03
2018-10-03T05:50:37.241Z,2.20
2018-10-03T05:53:06.368Z,2.40
2018-10-03T05:55:35.369Z,2.30
2018-10-03T05:58:04.427Z,2.23
2018-10-03T06:00:33.956Z,2.50
2018-10-03T06:03:08.599Z,2.13
2018-10-03T06:05:37.689Z,2.00
2018-10-03T06:08:06.752Z,2.77
2018-10-03T06:10:35.861Z,3.00
2018-10-03T06:13:05.466Z,4.70
2018-10-03T06:15:34.897Z,7.33
2018-10-03T06:18:04.182Z,10.70
2018-10-03T06:20:33.625Z,5.13
2018-10-03T06:23:03.072Z,4.93
2018-10-03T06:25:33.133Z,4.53
2018-10-03T06:41:18.846Z,6.70
2018-10-03T06:43:47.993Z,5.30
2018-10-03T06:46:21.865Z,4.80
2018-10-03T06:48:51.214Z,5.37
2018-10-03T06:51:24.848Z,8.83
2018-10-03T06:53:54.200Z,8.00
2018-10-03T06:56:28.483Z,6.67
2018-10-03T06:58:57.912Z,5.67
2018-10-03T07:01:27.212Z,5.40
2018-10-03T07:04:02.514Z,4.00
2018-10-03T07:06:36.376Z,2.97
2018-10-03T07:09:07.624Z,2.13
2018-10-03T07:11:45.625Z,1.93
2018-10-03T07:14:15.221Z,2.17
2018-10-03T07:16:51.696Z,2.00
2018-10-03T07:19:21.096Z,1.93
2018-10-03T07:21:55.771Z,2.10
2018-10-03T07:24:25.264Z,1.90
2018-10-03T07:27:00.551Z,1.60
2018-10-03T07:29:30.335Z,2.07
2018-10-03T07:32:02.918Z,1.80
2018-10-03T07:34:32.356Z,1.80
2018-10-03T07:37:05.956Z,2.00
2018-10-03T07:39:35.154Z,2.00
2018-10-03T07:42:09.408Z,2.00
2018-10-03T07:44:38.566Z,1.90
2018-10-03T07:47:13.572Z,1.70
2018-10-03T07:49:42.677Z,2.33
2018-10-03T07:52:22.006Z,1.87
2018-10-03T07:54:51.077Z,2.10
2018-10-03T07:57:29.690Z,2.10
2018-10-03T07:59:58.770Z,1.87
2018-10-03T08:02:32.423Z,1.80
2018-10-03T08:05:01.545Z,1.93
2018-10-03T08:07:38.828Z,2.00
2018-10-03T08:10:07.968Z,1.60
2018-10-03T08:12:38.001Z,1.63
2018-10-03T08:15:07.688Z,2.00
2018-10-03T08:17:37.200Z,1.70
2018-10-03T08:20:06.789Z,1.67
2018-10-03T08:22:38.157Z,1.80
2018-10-03T08:25:07.798Z,1.67
2018-10-03T08:27:40.948Z,1.73
2018-10-03T08:30:10.161Z,1.77
2018-10-03T08:32:39.466Z,1.77
2018-10-03T08:35:08.592Z,1.47
2018-10-03T08:37:38.083Z,1.47
2018-10-03T08:40:07.194Z,1.80
2018-10-03T08:42:37.834Z,1.73
2018-10-03T08:45:07.223Z,1.70
2018-10-03T08:47:41.413Z,1.43
2018-10-03T08:50:12.249Z,1.70
2018-10-03T08:52:41.425Z,1.93
2018-10-03T08:55:10.641Z,1.70
2018-10-03T08:58:00.290Z,1.60
2018-10-03T09:00:32.601Z,1.70
2018-10-03T09:03:14.977Z,1.77
2018-10-03T09:05:44.681Z,1.90
2018-10-03T09:08:18.740Z,1.60
2018-10-03T09:10:49.727Z,1.67
2018-10-03T09:13:27.949Z,1.63
2018-10-03T09:15:56.987Z,1.73
2018-10-03T09:18:26.387Z,1.87
2018-10-03T09:20:55.764Z,1.57
2018-10-03T09:23:25.507Z,1.77
2018-10-03T09:25:55.045Z,1.70
2018-10-03T09:28:24.759Z,1.40
2018-10-03T09:30:53.717Z,1.40
2018-10-03T09:33:22.845Z,1.50
2018-10-03T09:35:52.226Z,1.20
2018-10-03T09:38:21.349Z,1.67
2018-10-03T09:40:50.770Z,1.50
2018-10-03T09:43:19.770Z,1.30
2018-10-03T09:45:48.756Z,1.70
2018-10-03T09:57:00.973Z,1.50
2018-10-03T09:59:30.119Z,1.80
2018-10-03T10:01:59.205Z,1.57
2018-10-03T10:04:37.839Z,1.80
2018-10-03T10:07:10.758Z,1.70
2018-10-03T10:09:39.846Z,1.70
2018-10-03T10:12:18.661Z,1.70
2018-10-03T10:14:47.693Z,1.40
2018-10-03T10:17:26.487Z,1.43
2018-10-03T10:19:55.791Z,1.90
2018-10-03T10:22:34.714Z,1.60
2018-10-03T10:25:04.118Z,1.80
2018-10-03T10:27:39.718Z,1.50
2018-10-03T10:30:08.869Z,1.87
2018-10-03T10:32:38.071Z,1.70
2018-10-03T10:35:07.344Z,1.50
2018-10-03T10:37:36.677Z,2.07
2018-10-03T10:40:05.879Z,1.70
2018-10-03T10:42:37.250Z,1.80
2018-10-03T10:45:06.751Z,1.90
2018-10-03T10:47:40.584Z,1.57
2018-10-03T10:50:09.639Z,1.70
2018-10-03T10:52:38.759Z,1.70
2018-10-03T10:55:07.809Z,2.03
2018-10-03T10:57:37.560Z,2.13
2018-10-03T11:00:06.803Z,1.70
2018-10-03T11:02:43.776Z,2.10
2018-10-03T11:05:13.244Z,1.70
2018-10-03T11:07:43.276Z,1.87
2018-10-03T11:10:12.361Z,1.50
2018-10-03T11:12:41.668Z,1.60
2018-10-03T11:15:11.024Z,1.80
2018-10-03T11:17:40.163Z,1.50
2018-10-03T11:20:09.214Z,1.43
2018-10-03T11:22:40.252Z,1.70
2018-10-03T11:25:09.322Z,1.97
2018-10-03T11:27:41.116Z,1.70
2018-10-03T11:30:10.157Z,1.80
2018-10-03T11:32:40.969Z,1.80
2018-10-03T11:35:10.089Z,2.00
2018-10-03T11:37:40.569Z,1.63
2018-10-03T11:40:09.730Z,1.73
2018-10-03T11:42:39.543Z,1.80
2018-10-03T11:45:08.748Z,1.70
2018-10-03T11:50:44.673Z,1.83
2018-10-03T11:53:13.680Z,1.77
2018-10-03T11:55:42.706Z,1.60
2018-10-03T11:58:11.894Z,1.70
2018-10-03T12:00:41.163Z,1.60
2018-10-03T12:03:14.398Z,1.80
2018-10-03T12:05:43.298Z,1.70
2018-10-03T12:08:12.367Z,1.60
2018-10-03T12:10:41.474Z,1.60
2018-10-03T12:13:10.481Z,1.73
2018-10-03T12:15:39.572Z,1.60
2018-10-03T12:18:08.744Z,1.80
2018-10-03T12:20:37.782Z,1.90
2018-10-03T12:23:06.741Z,1.77
2018-10-03T12:25:35.858Z,1.77
2018-10-03T12:28:04.854Z,1.80
2018-10-03T12:30:34.330Z,1.70
2018-10-03T12:33:03.389Z,1.90
2018-10-03T12:35:34.621Z,1.77
2018-10-03T12:38:04.099Z,1.63
2018-10-03T12:40:33.956Z,1.53
2018-10-03T12:43:03.046Z,1.80
2018-10-03T12:45:33.175Z,1.70
2018-10-03T12:48:02.562Z,2.00
2018-10-03T12:50:32.266Z,1.77
2018-10-03T12:53:01.466Z,1.40
2018-10-03T12:55:30.819Z,1.67
2018-10-03T12:58:00.021Z,1.60
2018-10-03T13:00:32.076Z,1.50
2018-10-03T13:03:05.256Z,1.60
2018-10-03T13:05:34.527Z,1.70
2018-10-03T13:08:03.663Z,1.57
2018-10-03T13:10:33.630Z,1.70
2018-10-03T13:13:02.727Z,1.60
2018-10-03T13:15:32.383Z,1.70
2018-10-03T13:18:01.544Z,1.77
2018-10-03T13:20:31.106Z,1.57
2018-10-03T13:23:07.819Z,1.87
2018-10-03T13:25:37.853Z,1.70
2018-10-03T13:28:06.949Z,1.60
2018-10-03T13:30:36.042Z,1.30
2018-10-03T13:33:05.400Z,1.70
2018-10-03T13:35:34.376Z,1.83
2018-10-03T13:38:03.313Z,1.63
2018-10-03T13:40:33.126Z,1.80
2018-10-03T13:43:02.112Z,1.70
2018-10-03T13:45:32.373Z,1.57
2018-10-03T13:48:02.220Z,1.70
2018-10-03T13:50:31.609Z,1.97
2018-10-03T13:53:00.636Z,1.87
2018-10-03T13:55:30.073Z,1.50
2018-10-03T13:57:59.413Z,2.13
2018-10-03T14:00:28.470Z,1.90
2018-10-03T14:03:00.340Z,3.97
2018-10-03T14:05:29.868Z,4.03
2018-10-03T14:08:03.245Z,2.50
2018-10-03T14:10:32.845Z,1.90
2018-10-03T14:13:02.172Z,1.50
2018-10-03T14:15:31.729Z,1.80
2018-10-03T14:18:06.003Z,1.87
2018-10-03T14:20:35.745Z,1.60
2018-10-03T14:23:05.115Z,2.00
2018-10-03T14:25:34.521Z,1.80
2018-10-03T14:28:03.640Z,1.70
2018-10-03T14:30:33.097Z,1.57
2018-10-03T14:33:02.218Z,1.63
2018-10-03T14:42:02.192Z,1.67
2018-10-03T14:44:31.621Z,1.43
2018-10-03T14:47:04.783Z,1.77
2018-10-03T14:49:33.827Z,2.07
2018-10-03T14:52:07.260Z,1.70
2018-10-03T14:54:36.373Z,1.60
2018-10-03T14:57:09.895Z,1.70
2018-10-03T14:59:39.294Z,1.93
2018-10-03T15:02:15.354Z,1.70
2018-10-03T15:04:44.478Z,1.70
2018-10-03T15:07:26.969Z,1.90
2018-10-03T15:10:18.201Z,3.97
2018-10-03T15:13:09.852Z,2.30
2018-10-03T15:15:56.010Z,1.87
2018-10-03T15:21:43.191Z,2.00
2018-10-03T15:24:12.347Z,4.80
2018-10-03T15:26:46.938Z,3.67
2018-10-03T15:29:16.048Z,2.27
2018-10-03T15:31:50.404Z,7.10
2018-10-03T15:34:19.530Z,1.50
2018-10-03T15:36:55.642Z,2.13
2018-10-03T15:39:24.791Z,3.23
2018-10-03T15:42:01.107Z,1.67
2018-10-03T15:44:30.679Z,1.90
2018-10-03T15:47:03.748Z,1.57
2018-10-03T15:49:33.447Z,1.50
2018-10-03T15:52:07.505Z,1.70
2018-10-03T15:54:36.762Z,1.40
2018-10-03T15:57:08.547Z,1.50
2018-10-03T15:59:37.677Z,1.77
2018-10-03T16:02:07.069Z,1.47
2018-10-03T16:04:43.267Z,1.67
2018-10-03T16:07:16.517Z,1.40
2018-10-03T16:09:45.708Z,1.63
2018-10-03T16:12:23.183Z,1.50
2018-10-03T16:14:52.271Z,1.53
2018-10-03T16:17:30.788Z,1.60
2018-10-03T16:20:00.503Z,1.60
2018-10-03T16:22:37.059Z,1.53
2018-10-03T16:25:06.306Z,1.53
2018-10-03T16:27:45.259Z,1.60
2018-10-03T16:30:14.738Z,1.87
2018-10-03T16:32:50.387Z,1.50
2018-10-03T16:35:22.312Z,1.60
2018-10-03T16:37:52.890Z,1.87
2018-10-03T16:40:23.415Z,1.77
2018-10-03T16:42:58.357Z,1.70
2018-10-03T16:45:27.764Z,1.80
2018-10-03T16:48:09.545Z,2.00
2018-10-03T16:50:39.757Z,2.10
2018-10-03T16:53:09.027Z,1.80
2018-10-03T16:55:38.273Z,2.00
2018-10-03T16:58:08.159Z,5.43
2018-10-03T17:00:38.656Z,3.47
2018-10-03T17:03:15.639Z,2.47
2018-10-03T17:05:45.148Z,2.00
2018-10-03T17:08:14.402Z,4.87
2018-10-03T17:10:44.065Z,4.10
2018-10-03T17:13:18.997Z,3.60
2018-10-03T17:15:48.029Z,7.07
2018-10-03T17:18:17.127Z,5.23
2018-10-03T17:20:46.337Z,3.90
2018-10-03T17:23:15.526Z,4.83
2018-10-03T17:25:44.761Z,4.43
2018-10-03T17:28:21.142Z,3.97
2018-10-03T17:30:51.595Z,3.37
2018-10-03T17:33:20.842Z,2.07
2018-10-03T17:35:50.042Z,2.40
2018-10-03T17:38:19.233Z,2.13
2018-10-03T17:40:48.702Z,3.20
2018-10-03T17:43:17.879Z,2.10
2018-10-03T17:45:46.992Z,2.57
2018-10-03T17:48:16.164Z,2.87
2018-10-03T17:50:45.303Z,3.47
2018-10-03T17:53:14.501Z,3.60
2018-10-03T17:55:43.694Z,3.33
2018-10-03T17:58:12.783Z,4.20
2018-10-03T18:00:42.016Z,2.87
2018-10-03T18:03:16.990Z,3.00
2018-10-03T18:05:46.373Z,3.00
2018-10-03T18:08:15.518Z,3.97
2018-10-03T18:10:44.843Z,3.33
2018-10-03T18:13:13.932Z,4.13
2018-10-03T18:15:43.064Z,3.40
2018-10-03T18:18:12.214Z,2.37
2018-10-03T18:20:41.333Z,2.90
2018-10-03T18:23:10.768Z,2.77
2018-10-03T18:25:40.076Z,2.70
2018-10-03T18:28:09.318Z,2.77
2018-10-03T18:30:38.485Z,2.63
2018-10-03T18:33:08.263Z,3.13
2018-10-03T18:35:37.490Z,2.50
2018-10-03T18:38:06.692Z,2.87
2018-10-03T18:40:35.974Z,2.70
2018-10-03T18:43:05.377Z,2.77
2018-10-03T18:45:36.240Z,3.33
2018-10-03T18:48:06.610Z,2.70
2018-10-03T18:50:35.668Z,3.27
2018-10-03T18:53:05.557Z,2.70
2018-10-03T18:55:34.590Z,2.73
2018-10-03T18:58:03.713Z,3.10
2018-10-03T19:00:32.920Z,3.10
2018-10-03T19:03:01.993Z,2.93
2018-10-03T19:05:31.485Z,3.07
2018-10-03T19:08:02.858Z,3.03
2018-10-03T19:10:42.251Z,2.80
2018-10-03T19:13:37.278Z,3.07
2018-10-03T19:16:12.830Z,2.83
2018-10-03T19:19:25.476Z,2.73
2018-10-03T19:22:24.868Z,3.00
2018-10-03T19:24:54.002Z,3.30
2018-10-03T19:27:53.447Z,2.97
2018-10-03T19:30:26.478Z,3.27
2018-10-03T19:32:56.378Z,3.20
2018-10-03T19:35:26.181Z,3.53
2018-10-03T19:37:56.047Z,3.20
2018-10-03T19:40:26.082Z,3.10
2018-10-03T19:42:58.479Z,3.23
2018-10-03T19:45:39.452Z,3.20
2018-10-03T19:48:10.405Z,2.90
2018-10-03T19:50:40.932Z,3.33
2018-10-03T19:53:10.666Z,3.10
2018-10-03T19:58:33.378Z,3.27
2018-10-03T20:01:14.322Z,3.43
2018-10-03T20:03:45.440Z,3.23
2018-10-03T20:06:16.306Z,3.37
2018-10-03T20:08:50.830Z,3.50
2018-10-03T20:11:26.470Z,3.60
2018-10-03T23:03:14.779Z,3.20
2018-10-03T23:05:43.888Z,3.20
2018-10-03T23:08:13.157Z,3.33
2018-10-03T23:10:42.381Z,3.47
2018-10-03T23:13:11.573Z,3.40
2018-10-03T23:15:40.796Z,3.40
2018-10-03T23:18:42.429Z,3.20
2018-10-03T23:21:11.914Z,2.90
2018-10-03T23:23:41.651Z,3.13
2018-10-03T23:26:10.842Z,3.40
2018-10-03T23:28:42.300Z,3.00
2018-10-03T23:31:11.505Z,3.30
2018-10-03T23:33:40.762Z,3.30
2018-10-03T23:36:09.911Z,3.20
2018-10-03T23:38:39.088Z,3.13
2018-10-03T23:41:08.494Z,3.30
2018-10-03T23:43:37.712Z,3.03
2018-10-03T23:46:07.836Z,2.93
2018-10-03T23:48:37.019Z,3.03
2018-10-03T23:51:06.250Z,2.97
2018-10-03T23:53:35.420Z,2.97
2018-10-03T23:56:04.584Z,2.80
2018-10-03T23:58:33.879Z,3.00
